createdAt,value
2022-09-30T00:03:57.941Z,5.97
2022-09-30T00:07:55.070Z,4.80
2022-09-30T00:11:52.350Z,3.83
2022-09-30T00:15:49.490Z,4.23
2022-09-30T00:19:47.240Z,3.80
2022-09-30T00:23:46.093Z,3.40
2022-09-30T00:27:43.729Z,3.70
2022-09-30T00:31:41.202Z,3.63
2022-09-30T00:35:38.447Z,3.80
2022-09-30T00:39:36.966Z,3.50
2022-09-30T00:43:51.990Z,3.23
2022-09-30T00:48:02.501Z,3.53
2022-09-30T00:52:00.912Z,3.63
2022-09-30T00:56:02.734Z,3.30
2022-09-30T01:00:01.805Z,3.50
2022-09-30T01:04:11.977Z,3.50
2022-09-30T01:08:10.805Z,3.47
2022-09-30T01:12:14.428Z,3.33
2022-09-30T01:16:23.348Z,3.37
2022-09-30T01:21:13.780Z,3.40
2022-09-30T01:26:01.391Z,3.40
2022-09-30T01:30:37.750Z,3.60
2022-09-30T01:35:00.226Z,3.30
2022-09-30T01:39:13.315Z,3.20
2022-09-30T01:43:32.818Z,3.80
2022-09-30T01:47:46.624Z,3.60
2022-09-30T01:52:12.852Z,3.37
2022-09-30T01:56:24.762Z,4.20
2022-09-30T02:00:21.798Z,4.03
2022-09-30T02:04:33.535Z,3.70
2022-09-30T02:09:04.967Z,3.40
2022-09-30T02:13:16.852Z,3.83
2022-09-30T02:17:25.604Z,3.93
2022-09-30T02:21:33.559Z,3.73
2022-09-30T02:25:39.484Z,4.27
2022-09-30T02:29:42.156Z,3.57
2022-09-30T02:33:48.396Z,3.80
2022-09-30T02:37:54.251Z,4.00
2022-09-30T02:42:00.603Z,3.70
2022-09-30T02:47:11.945Z,3.80
2022-09-30T02:51:26.720Z,4.17
2022-09-30T02:55:59.766Z,4.20
2022-09-30T02:59:56.871Z,4.63
2022-09-30T03:04:08.100Z,4.60
2022-09-30T03:08:05.108Z,4.20
2022-09-30T03:12:30.856Z,4.27
2022-09-30T03:16:36.459Z,4.50
2022-09-30T03:21:37.375Z,4.60
2022-09-30T03:25:59.817Z,4.40
2022-09-30T03:30:38.152Z,3.77
2022-09-30T03:34:57.895Z,3.90
2022-09-30T03:39:29.103Z,5.03
2022-09-30T03:43:49.938Z,3.37
2022-09-30T03:47:54.119Z,3.40
2022-09-30T03:51:51.671Z,3.50
2022-09-30T03:55:52.998Z,3.20
2022-09-30T03:59:50.370Z,3.60
2022-09-30T04:03:53.493Z,3.10
2022-09-30T04:07:50.602Z,2.70
2022-09-30T04:11:47.596Z,3.37
2022-09-30T04:15:44.566Z,3.40
2022-09-30T04:19:41.869Z,3.20
2022-09-30T04:23:41.493Z,3.50
2022-09-30T04:27:38.964Z,3.33
2022-09-30T04:31:36.058Z,3.67
2022-09-30T04:35:33.129Z,3.43
2022-09-30T04:39:30.208Z,4.07
2022-09-30T04:43:27.212Z,3.63
2022-09-30T04:47:25.368Z,3.90
2022-09-30T04:51:22.381Z,4.40
2022-09-30T04:55:19.492Z,4.40
2022-09-30T04:59:16.554Z,4.10
2022-09-30T05:03:13.540Z,4.27
2022-09-30T05:07:10.560Z,4.40
2022-09-30T05:11:10.384Z,5.87
2022-09-30T05:15:08.488Z,5.57
2022-09-30T05:19:05.658Z,4.40
2022-09-30T05:23:02.615Z,5.17
2022-09-30T05:26:59.618Z,7.10
2022-09-30T05:31:00.172Z,6.40
2022-09-30T05:34:57.259Z,5.93
2022-09-30T05:38:54.751Z,5.47
2022-09-30T05:42:51.792Z,6.03
2022-09-30T05:46:49.035Z,5.93
2022-09-30T05:50:48.640Z,12.13
2022-09-30T05:54:45.625Z,7.57
2022-09-30T05:58:42.607Z,5.90
2022-09-30T06:02:39.820Z,5.23
2022-09-30T06:06:37.094Z,5.40
2022-09-30T06:10:36.242Z,4.50
2022-09-30T06:14:33.455Z,4.50
2022-09-30T06:18:31.544Z,4.23
2022-09-30T06:22:28.613Z,5.30
2022-09-30T06:26:25.677Z,4.47
2022-09-30T06:30:25.537Z,6.07
2022-09-30T06:34:22.660Z,5.30
2022-09-30T06:38:20.991Z,4.63
2022-09-30T06:42:19.217Z,4.60
2022-09-30T06:46:22.021Z,4.50
2022-09-30T06:50:25.654Z,4.83
2022-09-30T06:54:23.419Z,5.03
2022-09-30T06:58:21.420Z,4.73
2022-09-30T07:02:18.753Z,4.67
2022-09-30T07:06:18.406Z,5.47
2022-09-30T07:10:15.849Z,4.50
2022-09-30T07:14:13.733Z,4.90
2022-09-30T07:18:10.690Z,4.90
2022-09-30T07:22:26.026Z,5.83
2022-09-30T07:26:24.984Z,4.80
2022-09-30T07:30:27.104Z,5.07
2022-09-30T07:34:24.849Z,4.50
2022-09-30T07:38:25.603Z,4.97
2022-09-30T07:42:23.199Z,4.60
2022-09-30T07:46:29.813Z,4.93
2022-09-30T07:50:26.897Z,5.07
2022-09-30T07:54:31.264Z,4.63
2022-09-30T07:58:28.231Z,4.77
2022-09-30T08:02:25.309Z,5.93
2022-09-30T08:06:23.837Z,6.40
2022-09-30T08:14:37.974Z,5.13
2022-09-30T08:18:34.966Z,5.17
2022-09-30T08:22:31.967Z,4.70
2022-09-30T08:26:30.146Z,4.40
2022-09-30T08:30:27.337Z,4.40
2022-09-30T08:34:24.806Z,6.75
2022-09-30T08:38:21.986Z,5.00
2022-09-30T08:42:45.296Z,4.82
2022-09-30T08:47:14.998Z,5.53
2022-09-30T08:51:31.602Z,6.40
2022-09-30T08:55:46.770Z,6.55
2022-09-30T08:59:54.828Z,6.30
2022-09-30T09:03:52.671Z,5.18
2022-09-30T09:08:18.323Z,5.50
2022-09-30T09:12:42.604Z,4.88
2022-09-30T09:17:09.653Z,4.70
2022-09-30T09:21:32.227Z,5.00
2022-09-30T09:25:30.256Z,2.50
2022-09-30T09:29:47.029Z,3.72
2022-09-30T09:33:44.536Z,3.13
2022-09-30T09:38:25.579Z,2.92
2022-09-30T09:43:03.792Z,4.30
2022-09-30T09:47:15.767Z,4.10
2022-09-30T09:51:37.313Z,3.60
2022-09-30T09:55:35.494Z,3.30
2022-09-30T09:59:32.730Z,3.45
2022-09-30T10:03:29.933Z,3.03
2022-09-30T10:07:30.971Z,3.00
2022-09-30T10:11:29.342Z,3.00
2022-09-30T10:15:27.630Z,3.40
2022-09-30T10:19:31.363Z,3.08
2022-09-30T10:23:40.608Z,3.40
2022-09-30T10:27:37.787Z,2.70
2022-09-30T10:31:57.624Z,3.30
2022-09-30T10:36:16.504Z,3.70
2022-09-30T10:40:18.577Z,4.32
2022-09-30T10:44:21.854Z,5.68
2022-09-30T10:48:24.557Z,4.25
2022-09-30T10:52:30.960Z,4.05
2022-09-30T10:56:45.818Z,3.53
2022-09-30T11:00:44.023Z,3.55
2022-09-30T11:04:51.143Z,3.72
2022-09-30T11:08:58.563Z,3.10
2022-09-30T11:13:20.419Z,2.63
2022-09-30T11:17:38.182Z,2.80
2022-09-30T11:21:58.226Z,2.67
2022-09-30T11:26:12.665Z,2.88
2022-09-30T11:30:31.108Z,2.00
2022-09-30T11:35:01.702Z,2.78
2022-09-30T11:39:22.714Z,2.80
2022-09-30T11:43:31.850Z,2.40
2022-09-30T11:48:04.796Z,1.80
2022-09-30T11:52:38.976Z,2.22
2022-09-30T11:57:11.222Z,2.20
2022-09-30T12:01:28.454Z,1.60
2022-09-30T12:05:47.081Z,1.70
2022-09-30T12:09:56.291Z,1.90
2022-09-30T12:14:01.497Z,1.90
2022-09-30T12:18:10.941Z,1.80
2022-09-30T12:22:40.339Z,1.90
2022-09-30T12:26:41.801Z,1.17
2022-09-30T12:30:39.385Z,1.30
2022-09-30T12:35:30.582Z,1.17
2022-09-30T12:40:01.303Z,1.40
2022-09-30T12:44:51.369Z,1.30
2022-09-30T12:49:00.213Z,1.60
2022-09-30T12:53:00.232Z,1.60
2022-09-30T12:57:03.969Z,1.80
2022-09-30T13:01:18.672Z,1.40
2022-09-30T13:05:27.477Z,1.67
2022-09-30T13:09:31.571Z,1.50
2022-09-30T13:13:33.224Z,1.70
2022-09-30T13:17:30.371Z,1.58
2022-09-30T13:21:27.456Z,1.52
2022-09-30T13:25:24.673Z,1.50
2022-09-30T13:29:21.699Z,1.75
2022-09-30T13:33:41.639Z,1.55
2022-09-30T13:37:40.022Z,1.48
2022-09-30T13:41:39.951Z,2.10
2022-09-30T13:45:39.629Z,1.40
2022-09-30T13:50:05.131Z,1.60
2022-09-30T13:54:38.186Z,1.40
2022-09-30T13:59:09.992Z,1.70
2022-09-30T14:04:08.780Z,1.42
2022-09-30T14:08:53.205Z,1.67
2022-09-30T14:13:41.829Z,1.50
2022-09-30T14:18:23.558Z,1.50
2022-09-30T14:22:25.860Z,1.58
2022-09-30T14:26:50.309Z,1.50
2022-09-30T14:31:07.326Z,1.40
2022-09-30T14:35:08.900Z,1.65
2022-09-30T14:39:15.035Z,1.65
2022-09-30T14:43:22.544Z,1.75
2022-09-30T14:47:20.655Z,1.73
2022-09-30T14:51:23.521Z,2.20
2022-09-30T14:55:32.096Z,2.10
2022-09-30T14:59:34.833Z,2.10
2022-09-30T15:03:45.474Z,4.95
2022-09-30T15:07:42.635Z,2.38
2022-09-30T15:11:40.124Z,2.30
2022-09-30T15:15:38.512Z,3.60
2022-09-30T15:19:43.772Z,3.03
2022-09-30T15:23:49.538Z,2.20
2022-09-30T15:27:46.890Z,6.30
2022-09-30T15:32:12.361Z,2.53
2022-09-30T15:36:17.933Z,1.83
2022-09-30T15:40:38.947Z,2.60
2022-09-30T15:44:40.156Z,3.00
2022-09-30T15:48:44.962Z,2.20
2022-09-30T15:52:42.743Z,3.15
2022-09-30T15:56:39.787Z,3.55
2022-09-30T16:00:42.037Z,4.28
2022-09-30T16:04:39.542Z,3.28
2022-09-30T16:08:59.245Z,8.52
2022-09-30T16:12:56.333Z,4.15
2022-09-30T16:17:05.457Z,21.48
2022-09-30T16:21:05.851Z,8.00
2022-09-30T16:25:23.972Z,4.93
2022-09-30T16:29:21.518Z,4.40
2022-09-30T16:33:18.678Z,3.58
2022-09-30T16:37:20.259Z,6.55
2022-09-30T16:41:17.237Z,11.82
2022-09-30T16:45:15.173Z,12.18
2022-09-30T16:49:20.367Z,11.80
2022-09-30T16:53:17.999Z,41.58
2022-09-30T16:57:15.498Z,11.13
2022-09-30T17:01:21.113Z,7.03
2022-09-30T17:05:24.647Z,10.80
2022-09-30T17:09:21.650Z,10.70
2022-09-30T17:13:19.460Z,11.93
2022-09-30T17:17:16.531Z,13.50
2022-09-30T17:21:16.749Z,10.63
2022-09-30T17:25:15.178Z,8.10
2022-09-30T17:29:31.547Z,7.27
2022-09-30T17:33:37.906Z,7.00
2022-09-30T17:37:38.550Z,6.30
2022-09-30T17:41:55.742Z,10.43
2022-09-30T17:45:55.581Z,8.90
2022-09-30T17:49:55.340Z,11.00
2022-09-30T17:53:52.376Z,11.73
2022-09-30T17:57:50.208Z,11.10
2022-09-30T18:01:50.638Z,8.70
2022-09-30T18:05:47.878Z,9.47
2022-09-30T18:09:44.942Z,8.60
2022-09-30T18:13:42.033Z,8.93
2022-09-30T18:17:39.014Z,12.20
2022-09-30T18:21:38.543Z,10.43
2022-09-30T18:25:35.548Z,9.93
2022-09-30T18:29:32.612Z,10.77
2022-09-30T18:33:29.597Z,9.43
2022-09-30T18:37:29.171Z,10.90
2022-09-30T18:41:27.826Z,10.47
2022-09-30T18:45:31.238Z,14.47
2022-09-30T18:49:28.268Z,14.40
2022-09-30T18:53:25.481Z,15.50
2022-09-30T18:57:22.479Z,12.27
2022-09-30T19:01:21.067Z,56.87
2022-09-30T19:05:18.560Z,47.77
2022-09-30T19:09:16.682Z,16.20
2022-09-30T19:13:13.737Z,15.50
2022-09-30T19:17:15.114Z,11.73
2022-09-30T19:21:16.244Z,12.30
2022-09-30T19:25:15.918Z,11.90
2022-09-30T19:29:12.951Z,12.47
2022-09-30T19:33:10.246Z,13.50
2022-09-30T19:37:16.609Z,14.30
2022-09-30T19:41:19.045Z,13.63
2022-09-30T19:45:16.864Z,12.30
2022-09-30T19:49:15.446Z,12.77
2022-09-30T19:53:22.696Z,17.17
2022-09-30T19:57:24.220Z,18.27
2022-09-30T20:01:24.719Z,12.90
2022-09-30T20:05:23.714Z,13.20
2022-09-30T20:09:20.770Z,10.27
2022-09-30T20:13:18.027Z,9.30
2022-09-30T20:17:15.042Z,7.70
2022-09-30T20:21:17.042Z,7.23
2022-09-30T20:25:14.151Z,9.23
2022-09-30T20:29:12.425Z,9.27
2022-09-30T20:33:09.404Z,9.87
2022-09-30T20:37:06.363Z,10.23
2022-09-30T20:41:04.251Z,7.13
2022-09-30T20:45:02.905Z,8.53
2022-09-30T20:49:01.910Z,7.07
2022-09-30T20:52:58.976Z,6.90
2022-09-30T20:57:07.406Z,6.80
2022-09-30T21:01:10.618Z,6.07
2022-09-30T21:05:08.240Z,7.23
2022-09-30T21:09:05.586Z,8.60
2022-09-30T21:13:07.766Z,9.00
2022-09-30T21:17:06.104Z,9.63
2022-09-30T21:21:04.379Z,8.67
2022-09-30T21:25:02.014Z,8.20
2022-09-30T21:29:00.134Z,8.07
2022-09-30T21:32:57.383Z,10.93
2022-09-30T21:36:54.597Z,8.73
2022-09-30T21:40:58.175Z,8.43
2022-09-30T21:44:55.452Z,7.13
2022-09-30T21:49:04.923Z,6.23
2022-09-30T21:53:02.688Z,6.23
2022-09-30T21:56:59.970Z,6.73
2022-09-30T22:01:00.825Z,7.43
2022-09-30T22:04:57.900Z,6.90
2022-09-30T22:08:54.930Z,6.27
2022-09-30T22:12:51.934Z,6.10
2022-09-30T22:16:49.096Z,6.20
2022-09-30T22:20:47.951Z,6.23
2022-09-30T22:24:44.893Z,6.87
2022-09-30T22:28:41.973Z,6.67
2022-09-30T22:32:39.339Z,7.03
2022-09-30T22:36:55.270Z,8.67
2022-09-30T22:40:55.837Z,9.37
2022-09-30T22:44:53.190Z,6.47
2022-09-30T22:48:50.760Z,6.20
2022-09-30T22:52:49.777Z,6.10
2022-09-30T22:56:48.275Z,6.00
2022-09-30T23:00:56.012Z,5.90
2022-09-30T23:04:53.532Z,5.73
2022-09-30T23:08:51.934Z,5.67
2022-09-30T23:12:51.437Z,5.30
2022-09-30T23:16:49.122Z,6.10
2022-09-30T23:21:02.066Z,5.30
2022-09-30T23:25:00.347Z,5.33
2022-09-30T23:29:06.763Z,5.23
2022-09-30T23:33:03.759Z,5.30
2022-09-30T23:37:00.727Z,6.30
2022-09-30T23:41:00.329Z,6.43
2022-09-30T23:44:57.331Z,6.10
2022-09-30T23:48:54.602Z,7.00
2022-09-30T23:52:51.656Z,5.87
2022-09-30T23:56:48.842Z,6.00
